KSHD/SHD METAR and TAF weather

Enter ICAO airport designator
Station Type Date Time Source
KSHD METAR 2022/12/05 15:55 UTC NOAA

KSHD 051555Z AUTO 23003KT 10SM CLR 03/M02 A3023 RMK AO2 T00291022


Station Type Date Time Source
KSHD Decoded METAR 2022/12/05 15:55 UTC NOAA

Staunton / Shenandoah, VA, United States (KSHD) 38-16N 078-54W
Dec 05, 2022 - 10:55 AM EST / 2022.12.05 1555 UTC
Wind: from the SW (230 degrees) at 3 MPH (3 KT):0
Visibility: 10 mile(s):0
Sky conditions: clear
Temperature: 37.2 F (2.9 C)
Dew Point: 28.0 F (-2.2 C)
Relative Humidity: 69%
Pressure (altimeter): 30.23 in. Hg (1023 hPa)
ob: KSHD 051555Z AUTO 23003KT 10SM CLR 03/M02 A3023 RMK AO2 T00291022
cycle: 16

Station Type Date Time Source
KSHD TAF UTC NOAA

Error!

Example: see airport list